Time;durP1;ratioP1;P1;durP2;ratioP2;P2;SDS_P1;SDS_P2;PMS_P1;PMS_P2;Temp;Humidity;BMP_temperature;BMP_pressure;BME280_temperature;BME280_humidity;BME280_pressure;Samples;Min_cycle;Max_cycle;Signal;HPM_P1;HPM_P2
2023/07/02 00:00:33;;;;;;;;;;;;;;;19.07;64.24;99956.97;4184232;28;20451;-63
2023/07/02 00:02:37;;;;;;;;;;;;;;;19.05;64.37;99953.53;4190001;28;20024;-62
2023/07/02 00:04:42;;;;;;;;;;;;;;;19.04;64.46;99964.97;4188438;28;19924;-63
2023/07/02 00:06:45;;;;;;;;;;;;;;;19.04;64.35;99960.59;4188058;28;19921;-62
2023/07/02 00:08:47;;;;;;;;;;;;;;;18.96;63.98;99959.94;4170642;28;19931;-62
2023/07/02 00:10:50;;;;;;;;;;;;;;;18.96;64.10;99962.56;4189840;28;20431;-62
2023/07/02 00:12:53;;;;;;;;;;;;;;;18.96;64.50;99962.56;4168689;28;19921;-63
2023/07/02 00:14:57;;;;;;;;;;;;;;;18.99;64.70;99965.13;4192957;28;19920;-63
2023/07/02 00:17:00;;;;;;;;;;;;;;;18.97;64.95;99959.91;4176012;28;19972;-63
2023/07/02 00:19:03;;;;;;;;;;;;;;;18.99;63.94;99963.34;4181793;28;20366;-63
2023/07/02 00:21:06;;;;;;;;;;;;;;;18.93;63.69;99965.31;4191258;28;20019;-63
2023/07/02 00:23:09;;;;;;;;;;;;;;;18.90;64.12;99958.34;4166450;28;19920;-62
2023/07/02 00:25:14;;;;;;;;;;;;;;;18.90;64.46;99962.75;4175842;28;20386;-63
2023/07/02 00:27:16;;;;;;;;;;;;;;;18.90;64.50;99968.03;4186785;28;19925;-63
2023/07/02 00:29:19;;;;;;;;;;;;;;;18.92;64.51;99966.19;4181569;28;19925;-63
2023/07/02 00:31:24;;;;;;;;;;;;;;;18.92;63.63;99963.56;4175224;28;20447;-63
2023/07/02 00:33:26;;;;;;;;;;;;;;;18.93;64.14;99973.19;4168718;28;20443;-63
2023/07/02 00:35:29;;;;;;;;;;;;;;;18.90;64.55;99968.88;4176247;28;19976;-63
2023/07/02 00:37:32;;;;;;;;;;;;;;;18.88;64.61;99975.97;4179186;28;20454;-63
2023/07/02 00:39:37;;;;;;;;;;;;;;;18.87;64.28;99965.47;4158830;28;19921;-62
2023/07/02 00:41:40;;;;;;;;;;;;;;;18.89;64.28;99963.66;4163232;28;19920;-63
2023/07/02 00:43:44;;;;;;;;;;;;;;;18.88;64.21;99969.81;4182534;28;19927;-63
2023/07/02 00:45:46;;;;;;;;;;;;;;;18.82;64.68;99976.09;4179974;28;19971;-61
2023/07/02 00:47:51;;;;;;;;;;;;;;;18.82;64.62;99981.34;4170397;28;19987;-61
2023/07/02 00:49:53;;;;;;;;;;;;;;;18.77;64.26;99978.84;4183436;28;19921;-62
2023/07/02 00:51:56;;;;;;;;;;;;;;;18.73;64.11;99979.84;4187253;28;19925;-62
2023/07/02 00:53:59;;;;;;;;;;;;;;;18.69;63.71;99980.84;4188542;28;20431;-62
2023/07/02 00:56:02;;;;;;;;;;;;;;;18.66;64.23;99981.78;4170803;28;20011;-62
2023/07/02 00:58:05;;;;;;;;;;;;;;;18.65;64.80;99976.56;4170300;28;20004;-62
2023/07/02 01:00:08;;;;;;;;;;;;;;;18.61;65.06;99973.13;4190323;28;19926;-62
2023/07/02 01:02:12;;;;;;;;;;;;;;;18.59;64.78;99969.69;4208408;22;19927;-63
2023/07/02 01:04:17;;;;;;;;;;;;;;;18.56;64.84;99984.69;4181051;28;19928;-63
2023/07/02 01:06:24;;;;;;;;;;;;;;;18.54;64.92;99989.13;4177118;28;20465;-63
2023/07/02 01:08:27;;;;;;;;;;;;;;;18.52;64.25;99990.97;4200286;28;19925;-63
2023/07/02 01:10:31;;;;;;;;;;;;;;;18.48;64.12;99982.25;4198203;28;19925;-63
2023/07/02 01:12:34;;;;;;;;;;;;;;;18.49;64.45;99990.13;4192987;28;19950;-63
2023/07/02 01:14:38;;;;;;;;;;;;;;;18.51;64.37;99986.59;4174350;28;19931;-63
2023/07/02 01:16:43;;;;;;;;;;;;;;;18.53;65.12;99990.91;4176303;28;19924;-63
2023/07/02 01:18:46;;;;;;;;;;;;;;;18.51;64.24;99991.84;4174840;28;19929;-63
2023/07/02 01:20:51;;;;;;;;;;;;;;;18.47;64.15;99988.41;4169729;28;19947;-63
2023/07/02 01:22:53;;;;;;;;;;;;;;;18.44;64.39;99994.66;4172352;28;19927;-63
2023/07/02 01:24:56;;;;;;;;;;;;;;;18.45;64.37;99993.72;4170478;28;20011;-63
2023/07/02 01:27:01;;;;;;;;;;;;;;;18.47;63.97;99991.94;4191904;28;19963;-63
2023/07/02 01:29:13;;;;;;;;;;;;;;;18.52;63.56;99990.97;4192967;28;20472;-63
2023/07/02 01:31:16;;;;;;;;;;;;;;;18.53;63.33;99993.56;4175696;28;19964;-63
2023/07/02 01:33:20;;;;;;;;;;;;;;;18.54;63.86;99997.88;4195229;28;20359;-63
2023/07/02 01:35:23;;;;;;;;;;;;;;;18.54;63.04;100002.31;4163258;28;19921;-63
2023/07/02 01:37:27;;;;;;;;;;;;;;;18.53;62.23;100000.56;4178485;28;20446;-63
2023/07/02 01:39:30;;;;;;;;;;;;;;;18.54;61.84;100002.31;4180113;28;19920;-63
2023/07/02 01:41:37;;;;;;;;;;;;;;;18.55;61.40;100004.91;4177930;28;19921;-63
2023/07/02 01:43:40;;;;;;;;;;;;;;;18.54;60.80;100008.41;4179857;28;19920;-63
2023/07/02 01:45:43;;;;;;;;;;;;;;;18.54;60.91;100005.78;4161672;28;19921;-63
2023/07/02 01:47:46;;;;;;;;;;;;;;;18.59;60.40;99998.66;4197526;28;19937;-63
2023/07/02 01:49:48;;;;;;;;;;;;;;;18.60;60.58;100004.78;4178441;28;19925;-63
2023/07/02 01:51:51;;;;;;;;;;;;;;;18.57;60.18;100004.84;4188134;28;19927;-63
2023/07/02 01:53:55;;;;;;;;;;;;;;;18.61;59.91;100003.88;4193820;28;20034;-63
2023/07/02 01:55:59;;;;;;;;;;;;;;;18.61;59.29;100004.72;4196785;28;19924;-63
2023/07/02 01:58:02;;;;;;;;;;;;;;;18.57;58.99;100007.47;4167874;28;20456;-63
2023/07/02 02:00:06;;;;;;;;;;;;;;;18.59;59.60;100000.44;4158829;28;19922;-63
2023/07/02 02:02:17;;;;;;;;;;;;;;;18.63;59.42;100012.59;4194768;28;19986;-63
2023/07/02 02:04:19;;;;;;;;;;;;;;;18.58;58.22;100007.44;4177070;28;20432;-63
2023/07/02 02:06:22;;;;;;;;;;;;;;;18.58;58.34;100010.06;4179187;28;20011;-63
2023/07/02 02:08:25;;;;;;;;;;;;;;;18.59;58.21;100009.19;4177576;28;19920;-63
2023/07/02 02:10:29;;;;;;;;;;;;;;;18.66;58.55;100007.22;4177622;28;20007;-63
2023/07/02 02:12:31;;;;;;;;;;;;;;;18.61;58.10;100004.72;4178122;28;20199;-63
2023/07/02 02:14:34;;;;;;;;;;;;;;;18.57;57.66;100010.97;4168745;28;20520;-63
2023/07/02 02:16:37;;;;;;;;;;;;;;;18.57;57.84;100010.13;4180996;28;20374;-63
2023/07/02 02:18:40;;;;;;;;;;;;;;;18.53;57.52;100013.72;4179037;28;19994;-63
2023/07/02 02:20:42;;;;;;;;;;;;;;;18.56;57.41;100013.63;4196725;28;20297;-63
2023/07/02 02:22:45;;;;;;;;;;;;;;;18.55;56.90;100019.84;4177638;28;20019;-63
2023/07/02 02:24:48;;;;;;;;;;;;;;;18.52;56.55;100017.28;4178587;28;19927;-63
2023/07/02 02:26:52;;;;;;;;;;;;;;;18.47;56.29;100007.72;4174979;28;19974;-63
2023/07/02 02:28:55;;;;;;;;;;;;;;;18.52;56.86;100009.38;4195454;28;20101;-62
2023/07/02 02:30:57;;;;;;;;;;;;;;;18.44;56.80;100013.06;4175225;28;19921;-63
2023/07/02 02:33:00;;;;;;;;;;;;;;;18.45;56.47;100017.41;4179127;28;19925;-62
2023/07/02 02:35:03;;;;;;;;;;;;;;;18.51;56.39;100008.50;4191486;28;19927;-63
2023/07/02 02:37:07;;;;;;;;;;;;;;;18.53;55.96;100008.47;4177792;28;19921;-62
2023/07/02 02:39:10;;;;;;;;;;;;;;;18.48;56.25;100013.84;4179221;28;19937;-63
2023/07/02 02:41:12;;;;;;;;;;;;;;;18.44;56.49;100007.81;4179107;28;19921;-62
2023/07/02 02:43:23;;;;;;;;;;;;;;;18.41;56.59;100012.28;4176995;28;20325;-63
2023/07/02 02:45:26;;;;;;;;;;;;;;;18.44;56.50;100020.09;4171524;28;20260;-63
2023/07/02 02:47:29;;;;;;;;;;;;;;;18.39;56.50;100019.34;4176974;28;19920;-63
2023/07/02 02:49:32;;;;;;;;;;;;;;;18.37;56.90;100014.13;4192278;28;20057;-63
2023/07/02 02:51:34;;;;;;;;;;;;;;;18.40;56.44;100026.31;4195591;28;19920;-63
2023/07/02 02:53:37;;;;;;;;;;;;;;;18.38;56.32;100021.09;4194721;28;20020;-63
2023/07/02 02:55:40;;;;;;;;;;;;;;;18.35;56.18;100020.34;4177087;28;19925;-62
2023/07/02 02:57:43;;;;;;;;;;;;;;;18.28;56.15;100009.09;4192458;28;19924;-62
2023/07/02 02:59:47;;;;;;;;;;;;;;;18.24;56.58;100020.63;4178960;28;20495;-62
2023/07/02 03:01:51;;;;;;;;;;;;;;;18.25;56.43;100017.06;4195842;28;19924;-63
2023/07/02 03:03:54;;;;;;;;;;;;;;;18.24;56.70;100023.25;4177538;28;19943;-63
2023/07/02 03:05:57;;;;;;;;;;;;;;;18.27;56.76;100025.78;4162346;28;19959;-62
2023/07/02 03:08:00;;;;;;;;;;;;;;;18.24;56.22;100020.63;4175983;28;19932;-63
2023/07/02 03:10:02;;;;;;;;;;;;;;;18.22;56.59;100017.13;4177405;28;20360;-63
2023/07/02 03:12:06;;;;;;;;;;;;;;;18.22;56.63;100027.66;4176919;28;19920;-62
2023/07/02 03:14:09;;;;;;;;;;;;;;;18.25;56.32;100022.31;4176096;28;19966;-62
2023/07/02 03:16:13;;;;;;;;;;;;;;;18.18;56.41;100023.38;4176008;28;19928;-62
2023/07/02 03:18:16;;;;;;;;;;;;;;;18.09;56.38;100025.34;4195898;28;20297;-63
2023/07/02 03:20:18;;;;;;;;;;;;;;;18.10;57.03;100029.69;4195747;28;19924;-62
2023/07/02 03:22:21;;;;;;;;;;;;;;;18.13;57.08;100028.75;4195504;28;20305;-63
2023/07/02 03:24:24;;;;;;;;;;;;;;;18.19;57.20;100027.75;4193120;28;19960;-63
2023/07/02 03:26:27;;;;;;;;;;;;;;;18.17;56.87;100032.19;4194936;28;20363;-62
2023/07/02 03:28:29;;;;;;;;;;;;;;;18.11;56.81;100035.81;4172331;28;19964;-62
2023/07/02 03:30:33;;;;;;;;;;;;;;;18.13;56.82;100040.13;4173420;28;19920;-62
2023/07/02 03:32:37;;;;;;;;;;;;;;;18.14;56.68;100033.13;4192618;28;19921;-62
2023/07/02 03:34:40;;;;;;;;;;;;;;;18.10;56.98;100040.19;4172102;28;20398;-63
2023/07/02 03:36:43;;;;;;;;;;;;;;;18.13;56.98;100037.50;4175609;28;20351;-63
2023/07/02 03:38:46;;;;;;;;;;;;;;;18.07;56.98;100028.91;4179349;28;19990;-63
2023/07/02 03:40:49;;;;;;;;;;;;;;;18.08;57.20;100034.13;4193686;28;20251;-63
2023/07/02 03:42:53;;;;;;;;;;;;;;;18.04;57.10;100042.97;4192777;28;19932;-63
2023/07/02 03:44:56;;;;;;;;;;;;;;;18.01;57.01;100040.44;4176856;28;19999;-62
2023/07/02 03:46:59;;;;;;;;;;;;;;;17.98;57.59;100040.50;4196372;28;19920;-63
2023/07/02 03:49:03;;;;;;;;;;;;;;;17.97;57.14;100049.28;4191462;28;19952;-63
2023/07/02 03:51:07;;;;;;;;;;;;;;;18.02;57.27;100050.06;4191262;28;19931;-62
2023/07/02 03:53:10;;;;;;;;;;;;;;;17.95;57.65;100051.09;4176235;28;20295;-63
2023/07/02 03:55:13;;;;;;;;;;;;;;;17.98;57.17;100045.75;4192643;28;19920;-63
2023/07/02 03:57:15;;;;;;;;;;;;;;;17.95;56.82;100051.94;4175696;28;19927;-63
2023/07/02 03:59:18;;;;;;;;;;;;;;;17.91;57.26;100059.94;4189286;28;19927;-63
2023/07/02 04:01:21;;;;;;;;;;;;;;;17.92;57.64;100062.53;4194459;28;20285;-63
2023/07/02 04:03:23;;;;;;;;;;;;;;;17.96;57.42;100065.97;4196475;28;20301;-63
2023/07/02 04:05:27;;;;;;;;;;;;;;;17.90;57.82;100058.22;4194000;28;19920;-62
2023/07/02 04:07:31;;;;;;;;;;;;;;;17.91;57.93;100065.22;4192732;28;20377;-63
2023/07/02 04:09:33;;;;;;;;;;;;;;;17.94;58.15;100067.75;4193107;28;19920;-62
2023/07/02 04:11:36;;;;;;;;;;;;;;;17.92;58.13;100073.06;4177360;28;19924;-63
2023/07/02 04:13:39;;;;;;;;;;;;;;;17.90;58.11;100079.25;4194670;28;19935;-62
2023/07/02 04:15:42;;;;;;;;;;;;;;;17.92;58.06;100083.59;4194123;28;19990;-63
2023/07/02 04:17:44;;;;;;;;;;;;;;;17.87;58.34;100090.69;4194161;28;20282;-62
2023/07/02 04:19:47;;;;;;;;;;;;;;;17.86;57.77;100088.94;4191841;28;19921;-63
2023/07/02 04:21:51;;;;;;;;;;;;;;;17.95;58.35;100087.91;4154547;28;20020;-62
2023/07/02 04:23:54;;;;;;;;;;;;;;;18.06;58.16;100082.41;4194988;28;20015;-63
2023/07/02 04:25:57;;;;;;;;;;;;;;;18.10;57.84;100084.91;4174202;28;19921;-62
2023/07/02 04:28:20;;;;;;;;;;;;;;;18.13;57.50;100084.00;4192579;28;20328;-63
2023/07/02 04:30:23;;;;;;;;;;;;;;;18.14;57.77;100083.94;4190380;28;20015;-63
2023/07/02 04:32:25;;;;;;;;;;;;;;;18.18;57.42;100089.13;4195180;28;19927;-62
2023/07/02 04:34:28;;;;;;;;;;;;;;;18.17;57.42;100087.44;4177400;28;19959;-62
2023/07/02 04:36:31;;;;;;;;;;;;;;;18.23;57.04;100093.41;4172942;28;20362;-63
2023/07/02 04:38:35;;;;;;;;;;;;;;;18.21;57.14;100087.31;4194506;28;20002;-63
2023/07/02 04:40:38;;;;;;;;;;;;;;;18.24;57.26;100087.25;4194882;28;19927;-63
2023/07/02 04:42:46;;;;;;;;;;;;;;;18.30;57.10;100094.13;4152304;28;20474;-63
2023/07/02 04:44:49;;;;;;;;;;;;;;;18.20;57.17;100095.25;4173318;28;19971;-63
2023/07/02 04:46:52;;;;;;;;;;;;;;;18.25;57.09;100096.88;4177293;28;20019;-63
2023/07/02 04:48:55;;;;;;;;;;;;;;;18.34;57.45;100093.16;4178867;28;19920;-63
2023/07/02 04:50:57;;;;;;;;;;;;;;;18.38;57.08;100101.84;4189164;28;19920;-62
2023/07/02 04:53:00;;;;;;;;;;;;;;;18.44;57.11;100102.56;4192545;28;19920;-63
2023/07/02 04:55:04;;;;;;;;;;;;;;;18.53;56.52;100096.22;4195032;28;19924;-63
2023/07/02 04:57:07;;;;;;;;;;;;;;;18.55;56.60;100098.81;4172417;28;19921;-63
2023/07/02 04:59:10;;;;;;;;;;;;;;;18.57;56.53;100102.25;4192995;28;19999;-63
2023/07/02 05:01:12;;;;;;;;;;;;;;;18.60;56.57;100107.44;4193224;28;19924;-63
2023/07/02 05:03:15;;;;;;;;;;;;;;;18.67;56.37;100114.28;4175205;28;19920;-63
2023/07/02 05:05:18;;;;;;;;;;;;;;;18.70;56.14;100108.94;4193425;28;19966;-63
2023/07/02 05:07:21;;;;;;;;;;;;;;;18.73;56.51;100106.22;4193924;28;19974;-63
2023/07/02 05:09:23;;;;;;;;;;;;;;;18.73;56.15;100102.75;4194189;28;19920;-63
2023/07/02 05:11:27;;;;;;;;;;;;;;;18.72;56.36;100109.78;4192835;28;19926;-63
2023/07/02 05:13:30;;;;;;;;;;;;;;;18.73;56.01;100114.13;4176349;28;19927;-63
2023/07/02 05:15:33;;;;;;;;;;;;;;;18.65;56.17;100111.69;4176305;28;19952;-63
2023/07/02 05:17:36;;;;;;;;;;;;;;;18.69;56.22;100122.16;4175711;28;20329;-63
2023/07/02 05:19:40;;;;;;;;;;;;;;;18.71;56.01;100123.00;4174382;28;20027;-63
2023/07/02 05:21:43;;;;;;;;;;;;;;;18.73;55.67;100118.53;4191022;28;19924;-63
2023/07/02 05:23:46;;;;;;;;;;;;;;;18.73;55.95;100118.53;4174600;28;19968;-64
2023/07/02 05:25:48;;;;;;;;;;;;;;;18.82;56.26;100120.94;4192069;28;19921;-63
2023/07/02 05:27:52;;;;;;;;;;;;;;;18.90;56.03;100116.38;4193553;28;19921;-64
2023/07/02 05:29:55;;;;;;;;;;;;;;;18.94;55.73;100119.78;4195461;28;19927;-63
2023/07/02 05:31:58;;;;;;;;;;;;;;;19.04;55.65;100116.03;4174397;28;19956;-63
2023/07/02 05:34:00;;;;;;;;;;;;;;;19.00;55.53;100122.28;4190143;28;20017;-63
2023/07/02 05:36:03;;;;;;;;;;;;;;;18.95;55.57;100119.78;4194696;28;20297;-63
2023/07/02 05:38:06;;;;;;;;;;;;;;;18.99;55.46;100121.41;4191255;28;20015;-63
2023/07/02 05:40:09;;;;;;;;;;;;;;;19.05;55.38;100130.91;4194496;28;19952;-63
2023/07/02 05:42:12;;;;;;;;;;;;;;;19.12;55.13;100121.94;4191075;28;20001;-63
2023/07/02 05:44:16;;;;;;;;;;;;;;;19.14;54.75;100120.16;4187979;28;20353;-63
2023/07/02 05:46:18;;;;;;;;;;;;;;;19.23;54.66;100128.69;4190632;28;19920;-63
2023/07/02 05:48:21;;;;;;;;;;;;;;;19.16;54.30;100120.13;4191048;28;19921;-63
2023/07/02 05:50:24;;;;;;;;;;;;;;;19.14;54.62;100125.44;4192350;28;19927;-63
2023/07/02 05:52:26;;;;;;;;;;;;;;;19.25;54.60;100132.19;4186492;28;19956;-63
2023/07/02 05:54:29;;;;;;;;;;;;;;;19.25;54.72;100121.63;4189470;28;19973;-63
2023/07/02 05:56:32;;;;;;;;;;;;;;;19.36;54.43;100125.69;4191057;28;19928;-63
2023/07/02 05:58:34;;;;;;;;;;;;;;;19.42;54.11;100127.31;4192318;28;19927;-68
2023/07/02 06:00:51;;;;;;;;;;;;;;;19.48;53.57;100136.81;4191464;28;20425;-64
2023/07/02 06:02:53;;;;;;;;;;;;;;;19.51;53.78;100137.59;4174030;28;19928;-66
2023/07/02 06:04:57;;;;;;;;;;;;;;;19.55;53.96;100125.16;4191667;28;19935;-66
2023/07/02 06:07:00;;;;;;;;;;;;;;;19.62;53.20;100144.34;4191078;28;20007;-66
2023/07/02 06:09:03;;;;;;;;;;;;;;;19.62;53.23;100137.28;4174431;28;20007;-65
2023/07/02 06:11:06;;;;;;;;;;;;;;;19.68;53.23;100141.50;4191815;28;19948;-64
2023/07/02 06:13:09;;;;;;;;;;;;;;;19.68;52.43;100136.25;4193916;28;20487;-65
2023/07/02 06:15:12;;;;;;;;;;;;;;;19.74;52.66;100135.19;4187405;28;20407;-63
2023/07/02 06:17:16;;;;;;;;;;;;;;;19.82;52.66;100139.38;4176955;28;20015;-68
2023/07/02 06:19:18;;;;;;;;;;;;;;;19.87;52.15;100147.16;4195865;28;19921;-69
2023/07/02 06:21:21;;;;;;;;;;;;;;;19.84;52.41;100142.84;4176157;28;20027;-63
2023/07/02 06:23:24;;;;;;;;;;;;;;;19.93;52.63;100148.75;4172800;28;19975;-63
2023/07/02 06:25:27;;;;;;;;;;;;;;;19.94;51.74;100147.84;4176947;28;19929;-63
2023/07/02 06:27:29;;;;;;;;;;;;;;;19.93;51.78;100143.47;4193618;28;19920;-63
2023/07/02 06:29:32;;;;;;;;;;;;;;;19.90;51.70;100144.41;4175513;28;20020;-63
2023/07/02 06:31:35;;;;;;;;;;;;;;;19.91;51.89;100146.16;4193345;28;19955;-63
2023/07/02 06:33:41;;;;;;;;;;;;;;;19.99;51.81;100145.91;4190225;28;19944;-63
2023/07/02 06:35:44;;;;;;;;;;;;;;;20.04;51.96;100150.16;4196428;28;19931;-63
2023/07/02 06:37:47;;;;;;;;;;;;;;;20.10;51.65;100151.75;4192587;28;19920;-63
2023/07/02 06:39:50;;;;;;;;;;;;;;;20.04;51.56;100150.16;4198082;28;19921;-63
2023/07/02 06:41:53;;;;;;;;;;;;;;;20.12;51.96;100151.69;4194627;28;19928;-63
2023/07/02 06:44:03;;;;;;;;;;;;;;;20.22;51.75;100159.31;4171701;28;19924;-63
2023/07/02 06:46:06;;;;;;;;;;;;;;;20.27;51.83;100155.63;4179099;28;20430;-63
2023/07/02 06:48:08;;;;;;;;;;;;;;;20.34;51.71;100152.78;4179070;28;20423;-62
2023/07/02 06:50:12;;;;;;;;;;;;;;;20.35;51.57;100153.63;4179289;28;19921;-62
2023/07/02 06:52:15;;;;;;;;;;;;;;;20.38;51.33;100153.53;4178651;28;19924;-63
2023/07/02 06:54:20;;;;;;;;;;;;;;;20.27;51.14;100153.00;4174694;28;20372;-62
2023/07/02 06:56:23;;;;;;;;;;;;;;;20.40;51.47;100160.50;4178639;28;19952;-63
2023/07/02 06:58:28;;;;;;;;;;;;;;;20.33;50.81;100148.41;4191443;28;19920;-62
2023/07/02 07:00:32;;;;;;;;;;;;;;;20.39;51.15;100148.22;4175282;28;20402;-62
2023/07/02 07:02:34;;;;;;;;;;;;;;;20.54;51.01;100144.22;4205759;22;19924;-62
2023/07/02 07:04:37;;;;;;;;;;;;;;;20.58;50.73;100158.19;4195616;28;19920;-62
2023/07/02 07:06:41;;;;;;;;;;;;;;;20.60;50.42;100158.16;4188936;28;20322;-63
2023/07/02 07:08:44;;;;;;;;;;;;;;;20.54;50.71;100160.06;4196999;28;19926;-62
2023/07/02 07:10:46;;;;;;;;;;;;;;;20.62;50.71;100165.13;4172017;28;19928;-61
2023/07/02 07:12:49;;;;;;;;;;;;;;;20.69;50.48;100163.16;4195869;28;19954;-62
2023/07/02 07:14:52;;;;;;;;;;;;;;;20.81;50.44;100152.19;4192075;28;19927;-62
2023/07/02 07:16:55;;;;;;;;;;;;;;;20.94;50.14;100155.31;4193129;28;19926;-61
2023/07/02 07:18:58;;;;;;;;;;;;;;;20.99;49.70;100160.44;4191874;28;19962;-61
2023/07/02 07:21:00;;;;;;;;;;;;;;;21.00;49.07;100152.44;4190241;28;19943;-61
2023/07/02 07:23:05;;;;;;;;;;;;;;;21.07;48.85;100159.25;4193662;28;19931;-61
2023/07/02 07:25:08;;;;;;;;;;;;;;;21.17;48.37;100158.91;4192072;28;19920;-62
2023/07/02 07:27:11;;;;;;;;;;;;;;;21.12;46.87;100145.03;4193273;28;19924;-62
2023/07/02 07:29:13;;;;;;;;;;;;;;;21.09;46.76;100149.47;4172689;28;20355;-62
2023/07/02 07:31:16;;;;;;;;;;;;;;;21.17;46.63;100149.19;4191735;28;19931;-62
2023/07/02 07:33:19;;;;;;;;;;;;;;;21.22;46.67;100149.06;4170520;28;19921;-62
2023/07/02 07:35:22;;;;;;;;;;;;;;;21.30;46.73;100160.22;4191401;28;20021;-62
2023/07/02 07:37:25;;;;;;;;;;;;;;;21.39;46.45;100151.09;4189740;28;19974;-62
2023/07/02 07:39:29;;;;;;;;;;;;;;;21.51;46.17;100156.00;4192322;28;19952;-62
2023/07/02 07:41:32;;;;;;;;;;;;;;;21.57;45.12;100152.28;4190635;28;19932;-61
2023/07/02 07:43:35;;;;;;;;;;;;;;;21.61;45.43;100152.09;4174226;28;20457;-61
2023/07/02 07:45:38;;;;;;;;;;;;;;;21.68;45.15;100154.50;4190983;28;19925;-60
2023/07/02 07:47:41;;;;;;;;;;;;;;;21.63;44.59;100140.59;4182409;28;20301;-61
2023/07/02 07:49:43;;;;;;;;;;;;;;;21.61;44.78;100159.16;4189121;28;19921;-61
2023/07/02 07:51:46;;;;;;;;;;;;;;;21.70;44.97;100148.25;4188176;28;19936;-61
2023/07/02 07:53:49;;;;;;;;;;;;;;;21.71;44.33;100160.56;4190422;28;20023;-62
2023/07/02 07:55:53;;;;;;;;;;;;;;;21.63;44.09;100153.84;4192712;28;20291;-62
2023/07/02 07:57:56;;;;;;;;;;;;;;;21.65;44.07;100155.47;4171280;28;19920;-62
2023/07/02 07:59:58;;;;;;;;;;;;;;;21.78;44.21;100155.91;4190015;28;19927;-62
2023/07/02 08:02:01;;;;;;;;;;;;;;;21.89;44.07;100152.84;4187533;28;20521;-62
2023/07/02 08:04:04;;;;;;;;;;;;;;;21.95;44.23;100157.91;4192405;28;19931;-62
2023/07/02 08:06:07;;;;;;;;;;;;;;;22.00;43.72;100155.94;4190805;28;19925;-62
2023/07/02 08:08:11;;;;;;;;;;;;;;;22.10;43.91;100156.47;4189438;28;20364;-61
2023/07/02 08:10:14;;;;;;;;;;;;;;;22.27;43.67;100163.75;4194560;28;20369;-62
2023/07/02 08:12:18;;;;;;;;;;;;;;;22.36;43.21;100155.47;4191155;28;19921;-62
2023/07/02 08:14:21;;;;;;;;;;;;;;;22.29;43.17;100162.75;4190590;28;19927;-61
2023/07/02 08:16:24;;;;;;;;;;;;;;;22.27;42.59;100171.72;4187046;28;19927;-62
2023/07/02 08:18:27;;;;;;;;;;;;;;;22.26;42.95;100162.88;4186520;28;19999;-62
2023/07/02 08:20:29;;;;;;;;;;;;;;;22.34;42.94;100164.41;4189009;28;19920;-62
2023/07/02 08:22:32;;;;;;;;;;;;;;;22.37;42.72;100169.56;4192940;28;20453;-62
2023/07/02 08:24:35;;;;;;;;;;;;;;;22.26;42.52;100176.13;4190112;28;19929;-61
2023/07/02 08:26:38;;;;;;;;;;;;;;;22.35;42.66;100179.38;4183878;28;20437;-62
2023/07/02 08:28:42;;;;;;;;;;;;;;;22.34;42.24;100170.56;4190396;28;19920;-61
2023/07/02 08:30:45;;;;;;;;;;;;;;;22.32;42.07;100172.41;4173066;28;20011;-62
2023/07/02 08:32:48;;;;;;;;;;;;;;;22.41;42.39;100171.19;4173326;28;20003;-62
2023/07/02 08:34:51;;;;;;;;;;;;;;;22.56;42.26;100170.59;4188647;28;20050;-61
2023/07/02 08:36:54;;;;;;;;;;;;;;;22.70;42.59;100179.75;4192736;28;19924;-61
2023/07/02 08:38:56;;;;;;;;;;;;;;;22.69;42.16;100170.91;4184492;28;19920;-61
2023/07/02 08:40:59;;;;;;;;;;;;;;;22.72;41.80;100186.72;4190549;28;19920;-62
2023/07/02 08:43:02;;;;;;;;;;;;;;;22.77;41.61;100183.88;4193455;28;19924;-62
2023/07/02 08:45:07;;;;;;;;;;;;;;;22.79;41.71;100177.59;4168991;28;19963;-61
2023/07/02 08:47:10;;;;;;;;;;;;;;;22.82;42.02;100179.25;4186629;28;19924;-62
2023/07/02 08:49:13;;;;;;;;;;;;;;;22.98;41.87;100185.66;4170261;28;19921;-61
2023/07/02 08:51:15;;;;;;;;;;;;;;;22.90;42.15;100179.78;4189746;28;19928;-61
2023/07/02 08:53:25;;;;;;;;;;;;;;;22.75;42.53;100181.28;4187181;28;19924;-62
2023/07/02 08:55:29;;;;;;;;;;;;;;;22.80;42.07;100195.22;4192203;28;19924;-61
2023/07/02 08:57:32;;;;;;;;;;;;;;;22.84;41.72;100190.66;4176140;28;19952;-61
2023/07/02 08:59:36;;;;;;;;;;;;;;;22.81;41.93;100188.13;4174813;28;19925;-61
2023/07/02 09:01:47;;;;;;;;;;;;;;;22.82;41.56;100192.50;4188112;28;19924;-61
2023/07/02 09:03:50;;;;;;;;;;;;;;;22.91;40.65;100186.84;4187100;28;19924;-61
2023/07/02 09:05:54;;;;;;;;;;;;;;;22.96;40.05;100190.13;4185073;28;19960;-61
2023/07/02 09:07:56;;;;;;;;;;;;;;;23.00;40.12;100197.03;4192003;28;19920;-61
2023/07/02 09:09:59;;;;;;;;;;;;;;;23.21;39.84;100196.25;4169102;28;19921;-61
2023/07/02 09:12:02;;;;;;;;;;;;;;;23.31;39.48;100201.06;4189220;28;19951;-61
2023/07/02 09:14:05;;;;;;;;;;;;;;;23.09;39.87;100194.94;4189249;28;19924;-61
2023/07/02 09:16:07;;;;;;;;;;;;;;;22.96;39.87;100200.75;4190885;28;19944;-61
2023/07/02 09:18:18;;;;;;;;;;;;;;;22.89;40.08;100203.72;4184234;28;20019;-61
2023/07/02 09:20:21;;;;;;;;;;;;;;;22.96;40.17;100200.75;4187117;28;19920;-61
2023/07/02 09:22:24;;;;;;;;;;;;;;;22.92;40.33;100204.44;4188771;28;19925;-61
2023/07/02 09:24:27;;;;;;;;;;;;;;;23.04;40.52;100207.50;4167435;28;20362;-61
2023/07/02 09:26:29;;;;;;;;;;;;;;;23.24;40.16;100199.59;4172911;28;19925;-61
2023/07/02 09:28:32;;;;;;;;;;;;;;;23.35;39.73;100204.47;4190000;28;19920;-61
2023/07/02 09:30:35;;;;;;;;;;;;;;;23.46;39.13;100199.53;4170136;28;20334;-61
2023/07/02 09:32:38;;;;;;;;;;;;;;;23.41;39.19;100201.53;4175268;28;19921;-61
2023/07/02 09:34:43;;;;;;;;;;;;;;;23.60;38.90;100198.09;4175782;28;20036;-62
2023/07/02 09:36:46;;;;;;;;;;;;;;;23.67;38.67;100197.75;4189539;28;19931;-62
2023/07/02 09:38:48;;;;;;;;;;;;;;;23.72;38.75;100204.66;4170131;28;20381;-62
2023/07/02 09:40:51;;;;;;;;;;;;;;;23.79;39.00;100198.13;4189789;28;20382;-62
2023/07/02 09:42:56;;;;;;;;;;;;;;;23.76;38.59;100200.91;4188084;28;20513;-62
2023/07/02 09:44:59;;;;;;;;;;;;;;;23.73;38.10;100206.34;4172162;28;19935;-62
2023/07/02 09:47:03;;;;;;;;;;;;;;;23.58;37.66;100195.47;4175536;28;19927;-62
2023/07/02 09:49:08;;;;;;;;;;;;;;;23.63;37.81;100197.97;4188568;28;19974;-62
2023/07/02 09:51:12;;;;;;;;;;;;;;;23.87;37.91;100201.31;4192447;28;20371;-62
2023/07/02 09:53:15;;;;;;;;;;;;;;;23.83;36.47;100200.59;4194713;28;20025;-62
2023/07/02 09:55:18;;;;;;;;;;;;;;;23.78;36.78;100199.06;4176321;28;19921;-62
2023/07/02 09:57:20;;;;;;;;;;;;;;;23.93;37.03;100181.59;4191469;28;19944;-63
2023/07/02 09:59:23;;;;;;;;;;;;;;;24.03;37.11;100193.53;4188441;28;19927;-62
2023/07/02 10:01:26;;;;;;;;;;;;;;;24.16;35.71;100183.19;4158861;28;20379;-62
2023/07/02 10:03:30;;;;;;;;;;;;;;;24.11;35.04;100186.06;4192577;28;19978;-61
2023/07/02 10:05:39;;;;;;;;;;;;;;;24.04;35.54;100193.44;4191660;28;19979;-61
2023/07/02 10:07:44;;;;;;;;;;;;;;;23.95;35.31;100183.25;4190923;28;19970;-61
2023/07/02 10:09:47;;;;;;;;;;;;;;;23.91;35.45;100194.94;4193347;28;19924;-61
2023/07/02 10:11:52;;;;;;;;;;;;;;;23.92;35.57;100202.00;4158158;28;20019;-61
2023/07/02 10:13:58;;;;;;;;;;;;;;;24.06;35.27;100185.41;4194886;28;20015;-61
2023/07/02 10:16:04;;;;;;;;;;;;;;;24.09;35.28;100192.38;4174497;28;20006;-61
2023/07/02 10:18:07;;;;;;;;;;;;;;;24.02;35.49;100190.00;4189752;28;19920;-61
2023/07/02 10:20:11;;;;;;;;;;;;;;;24.13;35.81;100189.50;4169676;28;19921;-61
2023/07/02 10:22:14;;;;;;;;;;;;;;;24.15;36.13;100192.97;4194292;28;19920;-62
2023/07/02 10:24:18;;;;;;;;;;;;;;;24.00;35.81;100188.34;4191848;28;19928;-61
2023/07/02 10:26:21;;;;;;;;;;;;;;;23.57;35.48;100198.22;4191414;28;19928;-61
2023/07/02 10:28:26;;;;;;;;;;;;;;;23.35;35.52;100197.38;4189426;28;19925;-61
2023/07/02 10:30:32;;;;;;;;;;;;;;;23.45;35.98;100196.97;4192999;28;19921;-61
2023/07/02 10:32:35;;;;;;;;;;;;;;;23.77;35.97;100187.59;4155724;28;19928;-61
2023/07/02 10:34:38;;;;;;;;;;;;;;;24.06;35.96;100174.78;4175969;28;20453;-61